sensor_id;sensor_type;location;lat;lon;timestamp;pressure;altitude;pressure_sealevel;temperature;humidity
42621;BME280;28252;53.336;-6.298;2023-05-11T00:00:05;100795.78;;;22.42;100.00
42621;BME280;28252;53.336;-6.298;2023-05-11T00:00:39;100794.09;;;22.41;100.00
42621;BME280;28252;53.336;-6.298;2023-05-11T00:01:12;100790.53;;;22.41;100.00
42621;BME280;28252;53.336;-6.298;2023-05-11T00:01:45;100785.97;;;22.41;100.00
42621;BME280;28252;53.336;-6.298;2023-05-11T00:02:19;100789.69;;;22.40;100.00
42621;BME280;28252;53.336;-6.298;2023-05-11T00:02:52;100795.13;;;22.40;100.00
42621;BME280;28252;53.336;-6.298;2023-05-11T00:03:23;100788.84;;;22.40;100.00
42621;BME280;28252;53.336;-6.298;2023-05-11T00:03:54;100795.94;;;22.41;100.00
42621;BME280;28252;53.336;-6.298;2023-05-11T00:04:26;100795.13;;;22.40;100.00
42621;BME280;28252;53.336;-6.298;2023-05-11T00:05:02;100791.56;;;22.40;100.00
42621;BME280;28252;53.336;-6.298;2023-05-11T00:05:33;100794.28;;;22.40;100.00
42621;BME280;28252;53.336;-6.298;2023-05-11T00:06:06;100795.13;;;22.40;100.00
42621;BME280;28252;53.336;-6.298;2023-05-11T00:06:38;100793.44;;;22.39;100.00
42621;BME280;28252;53.336;-6.298;2023-05-11T00:07:11;100791.75;;;22.38;100.00
42621;BME280;28252;53.336;-6.298;2023-05-11T00:07:44;100789.88;;;22.38;100.00
42621;BME280;28252;53.336;-6.298;2023-05-11T00:08:16;100795.28;;;22.38;100.00
42621;BME280;28252;53.336;-6.298;2023-05-11T00:08:49;100793.63;;;22.37;100.00
42621;BME280;28252;53.336;-6.298;2023-05-11T00:09:20;100794.47;;;22.38;100.00
42621;BME280;28252;53.336;-6.298;2023-05-11T00:09:53;100795.47;;;22.37;100.00
42621;BME280;28252;53.336;-6.298;2023-05-11T00:10:24;100787.34;;;22.37;100.00
42621;BME280;28252;53.336;-6.298;2023-05-11T00:10:57;100800.91;;;22.37;100.00
42621;BME280;28252;53.336;-6.298;2023-05-11T00:11:32;100795.47;;;22.37;100.00
42621;BME280;28252;53.336;-6.298;2023-05-11T00:12:05;100795.47;;;22.37;100.00
42621;BME280;28252;53.336;-6.298;2023-05-11T00:12:37;100800.91;;;22.37;100.00
42621;BME280;28252;53.336;-6.298;2023-05-11T00:13:13;100792.94;;;22.35;100.00
42621;BME280;28252;53.336;-6.298;2023-05-11T00:13:46;100793.81;;;22.36;100.00
42621;BME280;28252;53.336;-6.298;2023-05-11T00:14:22;100793.81;;;22.36;100.00
42621;BME280;28252;53.336;-6.298;2023-05-11T00:14:56;100801.94;;;22.36;100.00
42621;BME280;28252;53.336;-6.298;2023-05-11T00:15:34;100797.53;;;22.35;100.00
42621;BME280;28252;53.336;-6.298;2023-05-11T00:16:07;100800.25;;;22.35;100.00
42621;BME280;28252;53.336;-6.298;2023-05-11T00:16:42;100793.97;;;22.34;100.00
42621;BME280;28252;53.336;-6.298;2023-05-11T00:17:20;100795.66;;;22.35;100.00
42621;BME280;28252;53.336;-6.298;2023-05-11T00:17:55;100791.28;;;22.34;100.00
42621;BME280;28252;53.336;-6.298;2023-05-11T00:18:26;100800.25;;;22.35;100.00
42621;BME280;28252;53.336;-6.298;2023-05-11T00:19:04;100797.53;;;22.35;100.00
42621;BME280;28252;53.336;-6.298;2023-05-11T00:19:35;100795.88;;;22.34;100.00
42621;BME280;28252;53.336;-6.298;2023-05-11T00:20:08;100795.88;;;22.34;100.00
42621;BME280;28252;53.336;-6.298;2023-05-11T00:20:49;100797.72;;;22.33;100.00
42621;BME280;28252;53.336;-6.298;2023-05-11T00:21:21;100802.13;;;22.34;100.00
42621;BME280;28252;53.336;-6.298;2023-05-11T00:21:52;100795.88;;;22.34;100.00
42621;BME280;28252;53.336;-6.298;2023-05-11T00:22:25;100798.75;;;22.32;100.00
42621;BME280;28252;53.336;-6.298;2023-05-11T00:22:56;100799.59;;;22.33;100.00
42621;BME280;28252;53.336;-6.298;2023-05-11T00:23:33;100793.31;;;22.32;100.00
42621;BME280;28252;53.336;-6.298;2023-05-11T00:24:06;100793.31;;;22.32;100.00
42621;BME280;28252;53.336;-6.298;2023-05-11T00:24:37;100791.63;;;22.31;100.00
42621;BME280;28252;53.336;-6.298;2023-05-11T00:25:11;100799.78;;;22.31;100.00
42621;BME280;28252;53.336;-6.298;2023-05-11T00:25:46;100792.47;;;22.32;100.00
42621;BME280;28252;53.336;-6.298;2023-05-11T00:26:19;100792.47;;;22.32;100.00
42621;BME280;28252;53.336;-6.298;2023-05-11T00:26:53;100796.22;;;22.31;100.00
42621;BME280;28252;53.336;-6.298;2023-05-11T00:27:29;100798.06;;;22.30;100.00
42621;BME280;28252;53.336;-6.298;2023-05-11T00:28:05;100799.94;;;22.30;100.00
42621;BME280;28252;53.336;-6.298;2023-05-11T00:28:44;100796.41;;;22.29;100.00
42621;BME280;28252;53.336;-6.298;2023-05-11T00:29:16;100795.34;;;22.30;100.00
42621;BME280;28252;53.336;-6.298;2023-05-11T00:32:06;100797.41;;;22.28;100.00
42621;BME280;28252;53.336;-6.298;2023-05-11T00:32:40;100792.00;;;22.28;100.00
42621;BME280;28252;53.336;-6.298;2023-05-11T00:33:13;100795.56;;;22.29;100.00
42621;BME280;28252;53.336;-6.298;2023-05-11T00:33:47;100795.56;;;22.29;100.00
42621;BME280;28252;53.336;-6.298;2023-05-11T00:34:23;100799.28;;;22.28;100.00
42621;BME280;28252;53.336;-6.298;2023-05-11T00:34:57;100797.41;;;22.28;100.00
42621;BME280;28252;53.336;-6.298;2023-05-11T00:35:28;100797.41;;;22.28;100.00
42621;BME280;28252;53.336;-6.298;2023-05-11T00:36:06;100800.13;;;22.28;100.00
42621;BME280;28252;53.336;-6.298;2023-05-11T00:36:42;100802.00;;;22.28;100.00
42621;BME280;28252;53.336;-6.298;2023-05-11T00:37:15;100797.41;;;22.28;100.00
42621;BME280;28252;53.336;-6.298;2023-05-11T00:37:49;100802.00;;;22.28;100.00
42621;BME280;28252;53.336;-6.298;2023-05-11T00:38:20;100797.75;;;22.25;100.00
42621;BME280;28252;53.336;-6.298;2023-05-11T00:38:53;100802.97;;;22.27;100.00
42621;BME280;28252;53.336;-6.298;2023-05-11T00:39:26;100800.28;;;22.27;100.00
42621;BME280;28252;53.336;-6.298;2023-05-11T00:40:05;100803.84;;;22.27;100.00
42621;BME280;28252;53.336;-6.298;2023-05-11T00:40:41;100803.16;;;22.25;100.00
42621;BME280;28252;53.336;-6.298;2023-05-11T00:41:19;100798.78;;;22.24;100.00
42621;BME280;28252;53.336;-6.298;2023-05-11T00:41:53;100795.88;;;22.26;100.00
42621;BME280;28252;53.336;-6.298;2023-05-11T00:42:28;100801.31;;;22.26;100.00
42621;BME280;28252;53.336;-6.298;2023-05-11T00:42:59;100802.34;;;22.25;100.00
42621;BME280;28252;53.336;-6.298;2023-05-11T00:43:33;100804.03;;;22.26;100.00
42621;BME280;28252;53.336;-6.298;2023-05-11T00:44:04;100807.75;;;22.25;100.00
42621;BME280;28252;53.336;-6.298;2023-05-11T00:44:37;100799.63;;;22.25;100.00
42621;BME280;28252;53.336;-6.298;2023-05-11T00:45:10;100800.66;;;22.24;100.00
42621;BME280;28252;53.336;-6.298;2023-05-11T00:45:41;100797.94;;;22.24;100.00
42621;BME280;28252;53.336;-6.298;2023-05-11T00:46:17;100807.75;;;22.25;100.00
42621;BME280;28252;53.336;-6.298;2023-05-11T00:46:50;100806.09;;;22.24;100.00
42621;BME280;28252;53.336;-6.298;2023-05-11T00:47:24;100803.38;;;22.24;100.00
42621;BME280;28252;53.336;-6.298;2023-05-11T00:47:55;100806.09;;;22.24;100.00
42621;BME280;28252;53.336;-6.298;2023-05-11T00:48:26;100806.09;;;22.24;100.00
42621;BME280;28252;53.336;-6.298;2023-05-11T00:49:02;100794.38;;;22.23;100.00
42621;BME280;28252;53.336;-6.298;2023-05-11T00:49:37;100799.78;;;22.23;100.00
42621;BME280;28252;53.336;-6.298;2023-05-11T00:50:11;100798.97;;;22.23;100.00
42621;BME280;28252;53.336;-6.298;2023-05-11T00:50:47;100798.13;;;22.22;100.00
42621;BME280;28252;53.336;-6.298;2023-05-11T00:51:18;100803.56;;;22.22;100.00
42621;BME280;28252;53.336;-6.298;2023-05-11T00:51:57;100801.69;;;22.23;100.00
42621;BME280;28252;53.336;-6.298;2023-05-11T00:52:34;100809.81;;;22.23;100.00
42621;BME280;28252;53.336;-6.298;2023-05-11T00:53:05;100802.69;;;22.22;100.00
42621;BME280;28252;53.336;-6.298;2023-05-11T00:53:40;100799.97;;;22.22;100.00
42621;BME280;28252;53.336;-6.298;2023-05-11T00:54:14;100794.53;;;22.22;100.00
42621;BME280;28252;53.336;-6.298;2023-05-11T00:54:48;100799.97;;;22.22;100.00
42621;BME280;28252;53.336;-6.298;2023-05-11T00:55:21;100801.03;;;22.20;100.00
42621;BME280;28252;53.336;-6.298;2023-05-11T00:55:52;100801.84;;;22.21;100.00
42621;BME280;28252;53.336;-6.298;2023-05-11T00:56:23;100798.31;;;22.20;100.00
42621;BME280;28252;53.336;-6.298;2023-05-11T00:56:59;100801.84;;;22.21;100.00
42621;BME280;28252;53.336;-6.298;2023-05-11T00:57:31;100794.72;;;22.20;100.00
42621;BME280;28252;53.336;-6.298;2023-05-11T00:58:05;100803.72;;;22.20;100.00
42621;BME280;28252;53.336;-6.298;2023-05-11T00:58:36;100796.59;;;22.19;100.00
42621;BME280;28252;53.336;-6.298;2023-05-11T00:59:10;100793.88;;;22.19;100.00
42621;BME280;28252;53.336;-6.298;2023-05-11T00:59:45;100804.75;;;22.19;100.00
42621;BME280;28252;53.336;-6.298;2023-05-11T01:00:19;100803.91;;;22.19;100.00
42621;BME280;28252;53.336;-6.298;2023-05-11T01:00:58;100803.03;;;22.18;100.00
42621;BME280;28252;53.336;-6.298;2023-05-11T01:01:33;100808.47;;;22.18;100.00
42621;BME280;28252;53.336;-6.298;2023-05-11T01:02:08;100802.22;;;22.18;100.00
42621;BME280;28252;53.336;-6.298;2023-05-11T01:02:41;100803.03;;;22.18;100.00
42621;BME280;28252;53.336;-6.298;2023-05-11T01:03:16;100803.03;;;22.18;100.00
42621;BME280;28252;53.336;-6.298;2023-05-11T01:03:50;100803.03;;;22.18;100.00
42621;BME280;28252;53.336;-6.298;2023-05-11T01:04:26;100807.63;;;22.18;100.00
42621;BME280;28252;53.336;-6.298;2023-05-11T01:05:00;100810.34;;;22.18;100.00
42621;BME280;28252;53.336;-6.298;2023-05-11T01:05:37;100806.81;;;22.17;100.00
42621;BME280;28252;53.336;-6.298;2023-05-11T01:06:51;100801.38;;;22.17;100.00
42621;BME280;28252;53.336;-6.298;2023-05-11T01:08:04;100809.69;;;22.16;100.00
42621;BME280;28252;53.336;-6.298;2023-05-11T01:08:39;100798.00;;;22.15;100.00
42621;BME280;28252;53.336;-6.298;2023-05-11T01:10:45;100799.84;;;22.15;100.00
42621;BME280;28252;53.336;-6.298;2023-05-11T01:11:33;100807.16;;;22.14;100.00
42621;BME280;28252;53.336;-6.298;2023-05-11T01:12:14;100808.84;;;22.15;100.00
42621;BME280;28252;53.336;-6.298;2023-05-11T01:13:42;100813.59;;;22.13;100.00
42621;BME280;28252;53.336;-6.298;2023-05-11T01:14:26;100810.03;;;22.13;100.00
42621;BME280;28252;53.336;-6.298;2023-05-11T01:16:17;100820.91;;;22.13;100.00
42621;BME280;28252;53.336;-6.298;2023-05-11T01:16:58;100818.38;;;22.11;100.00
42621;BME280;28252;53.336;-6.298;2023-05-11T01:18:59;100816.69;;;22.10;100.00
42621;BME280;28252;53.336;-6.298;2023-05-11T01:24:56;100813.28;;;22.08;100.00
42621;BME280;28252;53.336;-6.298;2023-05-11T01:27:25;100812.63;;;22.06;100.00
42621;BME280;28252;53.336;-6.298;2023-05-11T01:30:21;100813.66;;;22.05;100.00
42621;BME280;28252;53.336;-6.298;2023-05-11T01:30:58;100813.66;;;22.05;100.00
42621;BME280;28252;53.336;-6.298;2023-05-11T01:31:37;100817.41;;;22.04;100.00
42621;BME280;28252;53.336;-6.298;2023-05-11T01:32:14;100811.97;;;22.04;100.00
42621;BME280;28252;53.336;-6.298;2023-05-11T01:32:52;100807.56;;;22.03;100.00
42621;BME280;28252;53.336;-6.298;2023-05-11T01:33:31;100808.25;;;22.05;100.00
42621;BME280;28252;53.336;-6.298;2023-05-11T01:34:16;100811.13;;;22.04;100.00
42621;BME280;28252;53.336;-6.298;2023-05-11T01:36:31;100814.03;;;22.02;100.00
42621;BME280;28252;53.336;-6.298;2023-05-11T01:37:22;100811.31;;;22.02;100.00
42621;BME280;28252;53.336;-6.298;2023-05-11T01:37:58;100815.91;;;22.01;100.00
42621;BME280;28252;53.336;-6.298;2023-05-11T01:38:32;100802.34;;;22.01;100.00
42621;BME280;28252;53.336;-6.298;2023-05-11T01:39:07;100814.03;;;22.02;100.00
42621;BME280;28252;53.336;-6.298;2023-05-11T01:39:46;100808.59;;;22.02;100.00
42621;BME280;28252;53.336;-6.298;2023-05-11T01:40:24;100816.91;;;22.00;100.00
42621;BME280;28252;53.336;-6.298;2023-05-11T01:40:57;100811.50;;;22.00;100.00
42621;BME280;28252;53.336;-6.298;2023-05-11T01:41:30;100810.66;;;22.00;100.00
42621;BME280;28252;53.336;-6.298;2023-05-11T01:42:09;100807.94;;;22.00;100.00
42621;BME280;28252;53.336;-6.298;2023-05-11T01:43:05;100813.38;;;22.00;100.00
42621;BME280;28252;53.336;-6.298;2023-05-11T01:43:39;100814.38;;;21.99;100.00
42621;BME280;28252;53.336;-6.298;2023-05-11T01:44:10;100803.53;;;21.99;100.00
42621;BME280;28252;53.336;-6.298;2023-05-11T01:44:42;100805.41;;;21.98;100.00
42621;BME280;28252;53.336;-6.298;2023-05-11T01:45:14;100810.84;;;21.98;100.00
42621;BME280;28252;53.336;-6.298;2023-05-11T01:45:48;100801.84;;;21.98;100.00
42621;BME280;28252;53.336;-6.298;2023-05-11T01:46:25;100801.84;;;21.98;100.00
42621;BME280;28252;53.336;-6.298;2023-05-11T01:47:01;100810.84;;;21.98;100.00
42621;BME280;28252;53.336;-6.298;2023-05-11T01:47:35;100807.25;;;21.98;100.00
42621;BME280;28252;53.336;-6.298;2023-05-11T01:48:10;100807.25;;;21.98;100.00
42621;BME280;28252;53.336;-6.298;2023-05-11T01:48:49;100805.59;;;21.97;100.00
42621;BME280;28252;53.336;-6.298;2023-05-11T01:49:23;100799.31;;;21.96;100.00
42621;BME280;28252;53.336;-6.298;2023-05-11T01:49:59;100805.59;;;21.97;100.00
42621;BME280;28252;53.336;-6.298;2023-05-11T01:50:35;100814.72;;;21.96;100.00
42621;BME280;28252;53.336;-6.298;2023-05-11T01:51:14;100810.19;;;21.96;100.00
42621;BME280;28252;53.336;-6.298;2023-05-11T01:51:49;100812.03;;;21.96;100.00
42621;BME280;28252;53.336;-6.298;2023-05-11T01:52:22;100814.72;;;21.96;100.00
42621;BME280;28252;53.336;-6.298;2023-05-11T01:52:57;100813.91;;;21.95;100.00
42621;BME280;28252;53.336;-6.298;2023-05-11T01:53:32;100813.91;;;21.95;100.00
42621;BME280;28252;53.336;-6.298;2023-05-11T01:54:08;100815.78;;;21.95;100.00
42621;BME280;28252;53.336;-6.298;2023-05-11T01:54:43;100814.06;;;21.94;100.00
42621;BME280;28252;53.336;-6.298;2023-05-11T01:55:18;100814.91;;;21.94;100.00
42621;BME280;28252;53.336;-6.298;2023-05-11T01:55:50;100810.53;;;21.93;100.00
42621;BME280;28252;53.336;-6.298;2023-05-11T01:56:29;100815.09;;;21.93;100.00
42621;BME280;28252;53.336;-6.298;2023-05-11T01:57:05;100806.13;;;21.92;100.00
42621;BME280;28252;53.336;-6.298;2023-05-11T01:57:39;100814.25;;;21.92;100.00
42621;BME280;28252;53.336;-6.298;2023-05-11T01:58:10;100818.84;;;21.92;100.00
42621;BME280;28252;53.336;-6.298;2023-05-11T01:58:45;100813.41;;;21.92;100.00
42621;BME280;28252;53.336;-6.298;2023-05-11T01:59:16;100814.25;;;21.92;100.00
42621;BME280;28252;53.336;-6.298;2023-05-11T01:59:51;100819.66;;;21.92;100.00
42621;BME280;28252;53.336;-6.298;2023-05-11T02:00:29;100818.84;;;21.92;100.00
42621;BME280;28252;53.336;-6.298;2023-05-11T02:01:01;100813.41;;;21.92;100.00
42621;BME280;28252;53.336;-6.298;2023-05-11T02:01:32;100813.41;;;21.92;100.00
42621;BME280;28252;53.336;-6.298;2023-05-11T02:02:08;100818.84;;;21.92;100.00
42621;BME280;28252;53.336;-6.298;2023-05-11T02:02:39;100815.25;;;21.91;100.00
42621;BME280;28252;53.336;-6.298;2023-05-11T02:03:15;100817.97;;;21.91;100.00
42621;BME280;28252;53.336;-6.298;2023-05-11T02:03:52;100817.13;;;21.91;100.00
42621;BME280;28252;53.336;-6.298;2023-05-11T02:04:24;100818.84;;;21.92;100.00
42621;BME280;28252;53.336;-6.298;2023-05-11T02:04:58;100818.84;;;21.92;100.00
42621;BME280;28252;53.336;-6.298;2023-05-11T02:05:36;100811.72;;;21.91;100.00
42621;BME280;28252;53.336;-6.298;2023-05-11T02:06:11;100817.13;;;21.91;100.00
42621;BME280;28252;53.336;-6.298;2023-05-11T02:06:50;100832.41;;;21.92;100.00
42621;BME280;28252;53.336;-6.298;2023-05-11T02:07:24;100823.59;;;21.90;100.00
42621;BME280;28252;53.336;-6.298;2023-05-11T02:08:02;100820.88;;;21.90;100.00
42621;BME280;28252;53.336;-6.298;2023-05-11T02:08:39;100819.19;;;21.89;100.00
42621;BME280;28252;53.336;-6.298;2023-05-11T02:09:12;100827.16;;;21.90;100.00
42621;BME280;28252;53.336;-6.298;2023-05-11T02:09:49;100822.56;;;21.91;100.00
42621;BME280;28252;53.336;-6.298;2023-05-11T02:10:24;100820.03;;;21.89;100.00
42621;BME280;28252;53.336;-6.298;2023-05-11T02:10:56;100816.47;;;21.89;100.00
42621;BME280;28252;53.336;-6.298;2023-05-11T02:11:36;100827.31;;;21.89;100.00
42621;BME280;28252;53.336;-6.298;2023-05-11T02:12:14;100816.47;;;21.89;100.00
42621;BME280;28252;53.336;-6.298;2023-05-11T02:12:51;100830.03;;;21.89;100.00
42621;BME280;28252;53.336;-6.298;2023-05-11T02:13:26;100816.47;;;21.89;100.00
42621;BME280;28252;53.336;-6.298;2023-05-11T02:14:00;100819.19;;;21.89;100.00
42621;BME280;28252;53.336;-6.298;2023-05-11T02:14:35;100820.19;;;21.88;100.00
42621;BME280;28252;53.336;-6.298;2023-05-11T02:15:08;100818.34;;;21.88;100.00
42621;BME280;28252;53.336;-6.298;2023-05-11T02:15:46;100828.34;;;21.88;100.00
42621;BME280;28252;53.336;-6.298;2023-05-11T02:16:27;100822.91;;;21.88;100.00
42621;BME280;28252;53.336;-6.298;2023-05-11T02:17:03;100825.81;;;21.86;100.00
42621;BME280;28252;53.336;-6.298;2023-05-11T02:17:40;100831.03;;;21.88;100.00
42621;BME280;28252;53.336;-6.298;2023-05-11T02:18:16;100830.22;;;21.87;100.00
42621;BME280;28252;53.336;-6.298;2023-05-11T02:19:05;100827.69;;;21.86;100.00
42621;BME280;28252;53.336;-6.298;2023-05-11T02:19:40;100831.44;;;21.85;100.00
42621;BME280;28252;53.336;-6.298;2023-05-11T02:20:12;100835.81;;;21.86;100.00
42621;BME280;28252;53.336;-6.298;2023-05-11T02:20:45;100823.28;;;21.85;100.00
42621;BME280;28252;53.336;-6.298;2023-05-11T02:21:22;100827.84;;;21.84;100.00
42621;BME280;28252;53.336;-6.298;2023-05-11T02:21:57;100837.69;;;21.85;100.00
42621;BME280;28252;53.336;-6.298;2023-05-11T02:22:32;100832.44;;;21.83;100.00
42621;BME280;28252;53.336;-6.298;2023-05-11T02:23:03;100834.13;;;21.85;100.00
42621;BME280;28252;53.336;-6.298;2023-05-11T02:23:35;100838.69;;;21.84;100.00
42621;BME280;28252;53.336;-6.298;2023-05-11T02:24:09;100833.28;;;21.84;100.00
42621;BME280;28252;53.336;-6.298;2023-05-11T02:24:42;100837.88;;;21.83;100.00
42621;BME280;28252;53.336;-6.298;2023-05-11T02:29:16;100838.22;;;21.80;100.00
42621;BME280;28252;53.336;-6.298;2023-05-11T02:29:51;100845.34;;;21.81;100.00
42621;BME280;28252;53.336;-6.298;2023-05-11T02:30:26;100832.78;;;21.80;100.00
42621;BME280;28252;53.336;-6.298;2023-05-11T02:30:59;100837.38;;;21.80;100.00
42621;BME280;28252;53.336;-6.298;2023-05-11T02:31:39;100836.53;;;21.79;100.00
42621;BME280;28252;53.336;-6.298;2023-05-11T02:32:19;100838.22;;;21.80;100.00
42621;BME280;28252;53.336;-6.298;2023-05-11T02:32:54;100841.97;;;21.79;100.00
42621;BME280;28252;53.336;-6.298;2023-05-11T02:33:33;100840.25;;;21.78;100.00
42621;BME280;28252;53.336;-6.298;2023-05-11T02:34:17;100834.00;;;21.78;100.00
42621;BME280;28252;53.336;-6.298;2023-05-11T02:34:57;100841.09;;;21.79;100.00
42621;BME280;28252;53.336;-6.298;2023-05-11T02:35:35;100839.25;;;21.79;100.00
42621;BME280;28252;53.336;-6.298;2023-05-11T02:36:09;100841.97;;;21.79;100.00
42621;BME280;28252;53.336;-6.298;2023-05-11T02:36:49;100848.41;;;21.78;100.00
42621;BME280;28252;53.336;-6.298;2023-05-11T02:37:22;100841.28;;;21.77;100.00
42621;BME280;28252;53.336;-6.298;2023-05-11T02:38:05;100838.56;;;21.77;100.00
42621;BME280;28252;53.336;-6.298;2023-05-11T02:38:44;100840.25;;;21.78;100.00
42621;BME280;28252;53.336;-6.298;2023-05-11T02:39:21;100840.25;;;21.78;100.00
42621;BME280;28252;53.336;-6.298;2023-05-11T02:39:59;100847.72;;;21.76;100.00
42621;BME280;28252;53.336;-6.298;2023-05-11T02:40:39;100843.97;;;21.77;100.00
42621;BME280;28252;53.336;-6.298;2023-05-11T02:41:15;100847.72;;;21.76;100.00
42621;BME280;28252;53.336;-6.298;2023-05-11T02:46:20;100847.06;;;21.74;100.00
42621;BME280;28252;53.336;-6.298;2023-05-11T02:46:59;100847.06;;;21.74;100.00
42621;BME280;28252;53.336;-6.298;2023-05-11T02:47:57;100848.91;;;21.74;100.00
42621;BME280;28252;53.336;-6.298;2023-05-11T02:48:33;100853.50;;;21.73;100.00
42621;BME280;28252;53.336;-6.298;2023-05-11T02:49:14;100848.09;;;21.73;100.00
42621;BME280;28252;53.336;-6.298;2023-05-11T02:49:48;100853.50;;;21.73;100.00
42621;BME280;28252;53.336;-6.298;2023-05-11T02:50:26;100852.50;;;21.74;100.00
42621;BME280;28252;53.336;-6.298;2023-05-11T02:51:03;100848.91;;;21.74;100.00
42621;BME280;28252;53.336;-6.298;2023-05-11T02:51:43;100848.09;;;21.73;100.00
42621;BME280;28252;53.336;-6.298;2023-05-11T02:52:14;100855.38;;;21.73;100.00
42621;BME280;28252;53.336;-6.298;2023-05-11T02:52:52;100853.50;;;21.73;100.00
42621;BME280;28252;53.336;-6.298;2023-05-11T02:53:26;100854.50;;;21.72;100.00
42621;BME280;28252;53.336;-6.298;2023-05-11T02:54:04;100849.97;;;21.73;100.00
42621;BME280;28252;53.336;-6.298;2023-05-11T02:54:41;100847.25;;;21.73;100.00
42621;BME280;28252;53.336;-6.298;2023-05-11T02:55:15;100856.38;;;21.72;100.00
42621;BME280;28252;53.336;-6.298;2023-05-11T02:55:49;100856.38;;;21.72;100.00
42621;BME280;28252;53.336;-6.298;2023-05-11T02:56:27;100857.22;;;21.72;100.00
42621;BME280;28252;53.336;-6.298;2023-05-11T02:57:00;100851.97;;;21.71;100.00
42621;BME280;28252;53.336;-6.298;2023-05-11T02:57:38;100849.09;;;21.72;100.00
42621;BME280;28252;53.336;-6.298;2023-05-11T02:58:11;100855.56;;;21.71;100.00
42621;BME280;28252;53.336;-6.298;2023-05-11T02:58:49;100852.84;;;21.71;100.00
42621;BME280;28252;53.336;-6.298;2023-05-11T02:59:24;100855.56;;;21.71;100.00
42621;BME280;28252;53.336;-6.298;2023-05-11T03:00:00;100853.84;;;21.70;100.00
42621;BME280;28252;53.336;-6.298;2023-05-11T03:00:34;100853.84;;;21.70;100.00
42621;BME280;28252;53.336;-6.298;2023-05-11T03:01:05;100856.56;;;21.70;100.00
42621;BME280;28252;53.336;-6.298;2023-05-11T03:01:41;100858.44;;;21.70;100.00
42621;BME280;28252;53.336;-6.298;2023-05-11T03:02:14;100852.19;;;21.69;100.00
42621;BME280;28252;53.336;-6.298;2023-05-11T03:02:48;100845.88;;;21.69;100.00
42621;BME280;28252;53.336;-6.298;2023-05-11T03:03:24;100857.59;;;21.69;100.00
42621;BME280;28252;53.336;-6.298;2023-05-11T03:03:58;100854.88;;;21.69;100.00
42621;BME280;28252;53.336;-6.298;2023-05-11T03:04:37;100850.47;;;21.68;100.00
42621;BME280;28252;53.336;-6.298;2023-05-11T03:05:11;100855.91;;;21.68;100.00
42621;BME280;28252;53.336;-6.298;2023-05-11T03:05:44;100855.91;;;21.68;100.00
42621;BME280;28252;53.336;-6.298;2023-05-11T03:06:18;100851.31;;;21.69;100.00
42621;BME280;28252;53.336;-6.298;2023-05-11T03:06:51;100849.63;;;21.68;100.00
42621;BME280;28252;53.336;-6.298;2023-05-11T03:07:29;100852.34;;;21.68;100.00
42621;BME280;28252;53.336;-6.298;2023-05-11T03:08:05;100849.63;;;21.68;100.00
42621;BME280;28252;53.336;-6.298;2023-05-11T03:08:37;100846.06;;;21.67;100.00
42621;BME280;28252;53.336;-6.298;2023-05-11T03:09:09;100852.53;;;21.66;100.00
42621;BME280;28252;53.336;-6.298;2023-05-11T03:09:47;100854.19;;;21.67;100.00
42621;BME280;28252;53.336;-6.298;2023-05-11T03:10:19;100850.66;;;21.67;100.00
42621;BME280;28252;53.336;-6.298;2023-05-11T03:10:55;100840.81;;;21.66;100.00
42621;BME280;28252;53.336;-6.298;2023-05-11T03:11:29;100847.09;;;21.66;100.00
42621;BME280;28252;53.336;-6.298;2023-05-11T03:12:01;100848.13;;;21.65;100.00
42621;BME280;28252;53.336;-6.298;2023-05-11T03:12:36;100850.81;;;21.65;100.00
42621;BME280;28252;53.336;-6.298;2023-05-11T03:13:11;100848.13;;;21.65;100.00
42621;BME280;28252;53.336;-6.298;2023-05-11T03:13:48;100851.88;;;21.64;100.00
42621;BME280;28252;53.336;-6.298;2023-05-11T03:14:23;100842.69;;;21.65;100.00
42621;BME280;28252;53.336;-6.298;2023-05-11T03:15:02;100850.81;;;21.65;100.00
42621;BME280;28252;53.336;-6.298;2023-05-11T03:15:35;100851.00;;;21.63;100.00
42621;BME280;28252;53.336;-6.298;2023-05-11T03:16:11;100847.44;;;21.63;100.00
42621;BME280;28252;53.336;-6.298;2023-05-11T03:16:46;100846.44;;;21.64;100.00
42621;BME280;28252;53.336;-6.298;2023-05-11T03:17:20;100844.75;;;21.63;100.00
42621;BME280;28252;53.336;-6.298;2023-05-11T03:17:56;100852.88;;;21.63;100.00
42621;BME280;28252;53.336;-6.298;2023-05-11T03:18:33;100851.16;;;21.62;100.00
42621;BME280;28252;53.336;-6.298;2023-05-11T03:19:08;100845.75;;;21.62;100.00
42621;BME280;28252;53.336;-6.298;2023-05-11T03:19:42;100849.31;;;21.62;100.00
42621;BME280;28252;53.336;-6.298;2023-05-11T03:20:18;100852.03;;;21.62;100.00
42621;BME280;28252;53.336;-6.298;2023-05-11T03:20:54;100851.16;;;21.62;100.00
42621;BME280;28252;53.336;-6.298;2023-05-11T03:21:34;100853.03;;;21.61;100.00
42621;BME280;28252;53.336;-6.298;2023-05-11T03:22:10;100839.50;;;21.61;100.00
42621;BME280;28252;53.336;-6.298;2023-05-11T03:22:45;100850.34;;;21.61;100.00
42621;BME280;28252;53.336;-6.298;2023-05-11T03:23:17;100844.91;;;21.61;100.00
42621;BME280;28252;53.336;-6.298;2023-05-11T03:23:48;100850.34;;;21.61;100.00
42621;BME280;28252;53.336;-6.298;2023-05-11T03:24:24;100849.50;;;21.61;100.00
42621;BME280;28252;53.336;-6.298;2023-05-11T03:24:55;100847.78;;;21.60;100.00
42621;BME280;28252;53.336;-6.298;2023-05-11T03:25:27;100845.09;;;21.60;100.00
42621;BME280;28252;53.336;-6.298;2023-05-11T03:26:01;100845.09;;;21.60;100.00
42621;BME280;28252;53.336;-6.298;2023-05-11T03:26:35;100843.38;;;21.59;100.00
42621;BME280;28252;53.336;-6.298;2023-05-11T03:27:09;100840.66;;;21.59;100.00
42621;BME280;28252;53.336;-6.298;2023-05-11T03:27:43;100844.25;;;21.59;100.00